Terminal Aerodrome Forecast
Issued by NWS

Home | Current Version | Previous Version | Text Only | Print | Product List | Glossary On
Versions: 1 2 3 4 5 6 7 8 9 10 11 12
000
FTUS45 KRIW 281123
TAFWRL
TAF
KWRL 281123Z 2812/2912 03006KT P6SM SCT100
     FM282200 03009KT P6SM VCTS SCT110CB
     FM290300 VRB06KT P6SM SCT120=

USA.gov is the U.S. government's official web portal to all federal, state and local government web resources and services.